createdAt,value
2017-01-20T00:01:54.542Z,60.34
2017-01-20T00:04:06.887Z,60.35
2017-01-20T00:06:19.266Z,60.33
2017-01-20T00:08:31.945Z,60.35
2017-01-20T00:10:44.100Z,60.34
2017-01-20T00:12:56.344Z,60.35
2017-01-20T00:15:03.533Z,60.35
2017-01-20T00:17:15.883Z,60.36
2017-01-20T00:19:18.227Z,60.35
2017-01-20T00:21:30.716Z,60.35
2017-01-20T00:23:42.973Z,60.36
2017-01-20T00:25:55.372Z,60.33
2017-01-20T00:28:07.921Z,60.32
2017-01-20T00:30:15.419Z,60.33
2017-01-20T00:32:20.949Z,60.3
2017-01-20T00:34:33.222Z,60.29
2017-01-20T00:36:45.627Z,60.25
2017-01-20T00:38:58.037Z,60.23
2017-01-20T00:41:10.718Z,60.24
2017-01-20T00:43:23.162Z,60.23
2017-01-20T00:45:30.662Z,60.22
2017-01-20T00:47:42.876Z,60.22
2017-01-20T00:49:55.070Z,60.24
2017-01-20T00:52:07.401Z,60.23
2017-01-20T00:54:20.058Z,60.21
2017-01-20T00:56:29.047Z,60.21
2017-01-20T00:58:43.658Z,60.19
2017-01-20T01:00:56.079Z,60.18
2017-01-20T01:03:03.644Z,60.19
2017-01-20T01:05:16.016Z,60.18
2017-01-20T01:07:23.421Z,60.16
2017-01-20T01:09:35.615Z,60.12
2017-01-20T01:11:47.863Z,60.1
2017-01-20T01:14:01.814Z,60.11
2017-01-20T01:16:15.371Z,60.1
2017-01-20T01:18:22.979Z,60.1
2017-01-20T01:20:37.181Z,60.1
2017-01-20T01:22:49.395Z,60.08
2017-01-20T01:25:01.776Z,60.04
2017-01-20T01:27:14.221Z,60.06
2017-01-20T01:29:26.608Z,60.03
2017-01-20T01:31:34.386Z,60.04
2017-01-20T01:33:47.322Z,60.04
2017-01-20T01:35:59.811Z,60.02
2017-01-20T01:38:11.984Z,60.05
2017-01-20T01:40:24.226Z,60.05
2017-01-20T01:42:31.558Z,60.05
2017-01-20T01:44:33.801Z,60.08
2017-01-20T01:46:41.060Z,60.05
2017-01-20T01:48:53.340Z,60.05
2017-01-20T01:51:05.722Z,59.99
2017-01-20T01:53:18.377Z,59.98
2017-01-20T01:55:30.912Z,59.98
2017-01-20T01:57:38.174Z,59.98
2017-01-20T01:59:45.479Z,59.99
2017-01-20T02:01:57.786Z,60.02
2017-01-20T02:04:05.237Z,60.01
2017-01-20T02:06:12.606Z,60
2017-01-20T02:08:24.777Z,60.01
2017-01-20T02:10:37.211Z,59.97
2017-01-20T02:12:49.556Z,59.97
2017-01-20T02:14:56.974Z,59.99
2017-01-20T02:17:09.319Z,59.99
2017-01-20T02:19:21.647Z,60
2017-01-20T02:21:28.994Z,60.02
2017-01-20T02:23:36.187Z,60.04
2017-01-20T02:25:48.390Z,60.08
2017-01-20T02:27:56.038Z,60.09
2017-01-20T02:30:08.693Z,60.11
2017-01-20T02:32:16.106Z,60.12
2017-01-20T02:34:23.437Z,60.14
2017-01-20T02:36:30.701Z,60.14
2017-01-20T02:38:42.956Z,60.14
2017-01-20T02:40:55.189Z,60.14
2017-01-20T02:45:08.162Z,60.15
2017-01-20T02:47:20.405Z,60.11
2017-01-20T02:49:32.863Z,60.09
2017-01-20T02:51:45.172Z,60.11
2017-01-20T02:53:57.484Z,60.12
2017-01-20T02:56:10.594Z,60.13
2017-01-20T02:58:22.883Z,60.13
2017-01-20T03:00:35.199Z,60.11
2017-01-20T03:02:47.628Z,60.1
2017-01-20T03:04:54.900Z,60.1
2017-01-20T03:07:07.198Z,60.11
2017-01-20T03:09:19.457Z,60.13
2017-01-20T03:11:31.700Z,60.16
2017-01-20T03:13:38.966Z,60.16
2017-01-20T03:15:46.325Z,60.14
2017-01-20T03:17:53.679Z,60.15
2017-01-20T03:20:05.846Z,60.16
2017-01-20T03:22:18.166Z,60.16
2017-01-20T03:24:30.428Z,60.17
2017-01-20T03:26:42.873Z,60.18
2017-01-20T03:28:55.127Z,60.16
2017-01-20T03:31:02.560Z,60.18
2017-01-20T03:33:14.763Z,60.14
2017-01-20T03:35:21.909Z,60.09
2017-01-20T03:37:29.848Z,60.08
2017-01-20T03:39:42.409Z,60.1
2017-01-20T03:41:54.635Z,60.11
2017-01-20T03:44:06.816Z,60.1
2017-01-20T03:46:19.293Z,60.09
2017-01-20T03:48:26.681Z,60.09
2017-01-20T03:50:38.894Z,60.08
2017-01-20T03:52:51.211Z,60.05
2017-01-20T03:54:58.583Z,60.04
2017-01-20T03:57:11.102Z,60.04
2017-01-20T03:59:23.540Z,60.02
2017-01-20T04:01:35.884Z,60
2017-01-20T04:03:48.903Z,59.98
2017-01-20T04:06:01.102Z,59.98
2017-01-20T04:08:13.507Z,59.99
2017-01-20T04:10:25.722Z,60
2017-01-20T04:12:38.621Z,60.02
2017-01-20T04:14:50.960Z,60.03
2017-01-20T04:17:03.307Z,60.02
2017-01-20T04:19:15.637Z,60.03
2017-01-20T04:21:28.254Z,60.05
2017-01-20T04:23:40.639Z,60.07
2017-01-20T04:25:53.139Z,60.09
2017-01-20T04:28:05.545Z,60.08
2017-01-20T04:30:17.917Z,60.07
2017-01-20T04:32:28.405Z,60.04
2017-01-20T04:34:40.617Z,60.04
2017-01-20T04:36:52.984Z,60.02
2017-01-20T04:39:05.238Z,60.05
2017-01-20T04:41:17.476Z,60.07
2017-01-20T04:43:29.823Z,60.08
2017-01-20T04:45:40.623Z,60.07
2017-01-20T04:47:53.115Z,60.08
2017-01-20T04:50:00.401Z,60.04
2017-01-20T04:52:12.761Z,60.01
2017-01-20T04:54:25.216Z,59.99
2017-01-20T04:58:48.282Z,59.99
2017-01-20T05:01:00.543Z,59.99
2017-01-20T05:03:12.980Z,60
2017-01-20T05:05:25.247Z,60.01
2017-01-20T05:07:37.652Z,60.03
2017-01-20T05:09:49.921Z,60.02
2017-01-20T05:12:02.294Z,60.03
2017-01-20T05:14:09.656Z,60.04
2017-01-20T05:16:21.895Z,60.02
2017-01-20T05:18:34.243Z,60
2017-01-20T05:20:46.913Z,60.01
2017-01-20T05:22:59.675Z,59.97
2017-01-20T05:25:12.143Z,59.96
2017-01-20T05:27:24.451Z,59.96
2017-01-20T05:29:36.615Z,59.95
2017-01-20T05:31:49.008Z,59.96
2017-01-20T05:34:01.271Z,59.96
2017-01-20T05:36:13.642Z,59.95
2017-01-20T05:40:42.839Z,59.94
2017-01-20T05:42:50.108Z,59.93
2017-01-20T05:45:02.485Z,59.91
2017-01-20T05:47:14.737Z,59.89
2017-01-20T05:49:26.880Z,59.9
2017-01-20T05:51:34.370Z,59.91
2017-01-20T05:53:41.792Z,59.92
2017-01-20T05:55:54.107Z,59.88
2017-01-20T05:58:06.759Z,59.87
2017-01-20T06:00:17.384Z,59.82
2017-01-20T06:02:29.531Z,59.79
2017-01-20T06:04:41.890Z,59.77
2017-01-20T06:06:54.144Z,59.75
2017-01-20T06:09:06.490Z,59.75
2017-01-20T06:11:18.765Z,59.77
2017-01-20T06:13:31.075Z,59.79
2017-01-20T06:15:38.367Z,59.79
2017-01-20T06:17:50.632Z,59.8
2017-01-20T06:20:03.085Z,59.79
2017-01-20T06:22:15.518Z,59.81
2017-01-20T06:24:27.749Z,59.84
2017-01-20T06:26:40.152Z,59.88
2017-01-20T06:28:47.547Z,59.87
2017-01-20T06:30:55.265Z,59.89
2017-01-20T06:33:07.531Z,59.92
2017-01-20T06:35:19.816Z,59.93
2017-01-20T06:37:32.294Z,59.93
2017-01-20T06:39:44.594Z,59.93
2017-01-20T06:41:56.884Z,59.93
2017-01-20T06:43:59.349Z,59.95
2017-01-20T06:46:11.519Z,59.96
2017-01-20T06:48:22.392Z,59.91
2017-01-20T06:50:29.630Z,59.84
2017-01-20T06:52:41.773Z,59.75
2017-01-20T06:54:54.001Z,59.64
2017-01-20T06:57:06.554Z,59.56
2017-01-20T06:59:13.917Z,59.47
2017-01-20T07:01:26.249Z,59.37
2017-01-20T07:03:38.638Z,59.25
2017-01-20T07:05:50.971Z,59.21
2017-01-20T07:08:03.713Z,59.2
2017-01-20T07:10:16.403Z,59.22
2017-01-20T07:12:29.009Z,59.22
2017-01-20T07:14:41.198Z,59.16
2017-01-20T07:16:53.543Z,59.1
2017-01-20T07:19:01.041Z,59.04
2017-01-20T07:21:08.492Z,58.92
2017-01-20T07:23:20.828Z,58.85
2017-01-20T07:25:33.060Z,58.81
2017-01-20T07:27:45.401Z,58.75
2017-01-20T07:29:58.150Z,58.7
2017-01-20T07:32:10.600Z,58.57
2017-01-20T07:34:18.625Z,58.47
2017-01-20T07:36:26.232Z,58.37
2017-01-20T07:38:31.925Z,58.28
2017-01-20T07:40:44.203Z,58.11
2017-01-20T07:42:51.714Z,58.07
2017-01-20T07:45:04.164Z,57.91
2017-01-20T07:47:11.577Z,57.84
2017-01-20T07:49:23.912Z,57.72
2017-01-20T07:51:36.138Z,57.71
2017-01-20T07:53:48.956Z,57.63
2017-01-20T07:56:01.333Z,57.46
2017-01-20T07:58:13.942Z,57.42
2017-01-20T08:00:26.229Z,57.54
2017-01-20T08:02:38.609Z,57.48
2017-01-20T08:04:41.105Z,57.43
2017-01-20T08:06:48.577Z,57.47
2017-01-20T08:09:01.085Z,57.37
2017-01-20T08:11:13.384Z,57.16
2017-01-20T08:13:25.594Z,57.09
2017-01-20T08:15:37.983Z,57
2017-01-20T08:17:49.707Z,56.95
2017-01-20T08:19:57.267Z,56.88
2017-01-20T08:22:09.802Z,56.82
2017-01-20T08:24:31.631Z,56.76
2017-01-20T08:26:44.200Z,56.6
2017-01-20T08:28:51.630Z,56.41
2017-01-20T08:30:58.921Z,56.32
2017-01-20T08:33:11.295Z,56.25
2017-01-20T08:35:23.550Z,56.22
2017-01-20T08:37:36.851Z,56.02
2017-01-20T08:39:44.323Z,55.82
2017-01-20T08:41:56.731Z,55.79
2017-01-20T08:44:08.923Z,55.85
2017-01-20T08:46:21.266Z,55.8
2017-01-20T08:48:33.992Z,55.68
2017-01-20T08:50:41.177Z,55.6
2017-01-20T08:52:53.786Z,55.61
2017-01-20T08:55:06.077Z,55.55
2017-01-20T08:57:18.760Z,55.54
2017-01-20T08:59:30.941Z,55.72
2017-01-20T09:01:43.366Z,55.91
2017-01-20T09:03:55.577Z,56.12
2017-01-20T09:06:07.879Z,56.3
2017-01-20T09:08:20.258Z,56.36
2017-01-20T09:10:32.560Z,56.33
2017-01-20T09:12:44.786Z,56.3
2017-01-20T09:14:57.139Z,55.76
2017-01-20T09:17:09.388Z,55.06
2017-01-20T09:19:21.649Z,54.96
2017-01-20T09:21:40.584Z,55.25
2017-01-20T09:24:00.410Z,55.44
2017-01-20T09:26:12.631Z,55.53
2017-01-20T09:28:24.933Z,55.55
2017-01-20T09:30:32.215Z,55.68
2017-01-20T09:32:45.267Z,55.6
2017-01-20T09:34:53.629Z,55.72
2017-01-20T09:37:05.917Z,55.45
2017-01-20T09:39:18.196Z,55.3
2017-01-20T09:41:30.511Z,55.15
2017-01-20T09:43:42.873Z,54.93
2017-01-20T09:45:55.190Z,54.73
2017-01-20T09:48:07.549Z,54.53
2017-01-20T09:50:19.908Z,53.84
2017-01-20T09:52:32.262Z,51.82
2017-01-20T09:54:47.778Z,49.15
2017-01-20T09:57:03.335Z,46.91
2017-01-20T09:59:15.632Z,45.84
2017-01-20T10:01:28.017Z,45.27
2017-01-20T10:03:35.368Z,45.02
2017-01-20T10:05:47.643Z,44.79
2017-01-20T10:08:00.162Z,44.51
2017-01-20T10:10:08.097Z,44.43
2017-01-20T10:12:20.395Z,44.28
2017-01-20T10:14:27.733Z,43.95
2017-01-20T10:16:35.113Z,44.12
2017-01-20T10:18:42.572Z,44.22
2017-01-20T10:20:54.886Z,44.17
2017-01-20T10:23:07.141Z,45.97
2017-01-20T10:25:19.458Z,47.89
2017-01-20T10:27:31.705Z,47.5
2017-01-20T10:29:43.954Z,46.08
2017-01-20T10:31:56.302Z,44.99
2017-01-20T10:34:09.003Z,44.72
2017-01-20T10:36:16.361Z,45.08
2017-01-20T10:38:28.754Z,45.55
2017-01-20T10:40:40.956Z,45.47
2017-01-20T10:42:53.329Z,45.08
2017-01-20T10:45:06.103Z,45.01
2017-01-20T10:47:18.512Z,45.05
2017-01-20T10:49:30.738Z,44.62
2017-01-20T10:51:43.117Z,44.54
2017-01-20T10:53:50.493Z,44.61
2017-01-20T10:56:02.835Z,44.69
2017-01-20T10:58:15.146Z,44.99
2017-01-20T11:00:27.503Z,44.97
2017-01-20T11:02:39.656Z,44.91
2017-01-20T11:04:51.850Z,44.97
2017-01-20T11:07:04.101Z,45.01
2017-01-20T11:09:11.342Z,45.19
2017-01-20T11:11:23.693Z,45.21
2017-01-20T11:13:31.182Z,45.13
2017-01-20T11:15:38.527Z,45.11
2017-01-20T11:17:41.254Z,45.15
2017-01-20T11:19:48.838Z,45.27
2017-01-20T11:21:56.090Z,45.43
2017-01-20T11:24:08.322Z,45.34
2017-01-20T11:26:20.861Z,45.37
2017-01-20T11:28:33.258Z,45.4
2017-01-20T11:30:45.552Z,45.37
2017-01-20T11:32:58.053Z,45.18
2017-01-20T11:35:10.225Z,45.06
2017-01-20T11:37:22.674Z,45.2
2017-01-20T11:39:34.850Z,44.9
2017-01-20T11:41:47.171Z,44.55
2017-01-20T11:43:59.476Z,44.15
2017-01-20T11:46:07.068Z,44.34
2017-01-20T11:48:14.289Z,44.52
2017-01-20T11:50:26.668Z,44.43
2017-01-20T11:52:39.309Z,44.35
2017-01-20T11:54:52.867Z,44.31
2017-01-20T11:57:00.148Z,43.91
2017-01-20T11:59:12.512Z,43.95
2017-01-20T12:01:24.847Z,44.89
2017-01-20T12:03:37.192Z,44.15
2017-01-20T12:05:49.632Z,44.74
2017-01-20T12:08:02.065Z,45.41
2017-01-20T12:10:09.683Z,45.47
2017-01-20T12:12:21.975Z,47.05
2017-01-20T12:14:29.346Z,48.16
2017-01-20T12:16:36.686Z,46.87
2017-01-20T12:18:44.259Z,45.85
2017-01-20T12:20:56.589Z,45.65
2017-01-20T12:23:09.032Z,46.88
2017-01-20T12:25:21.540Z,47.02
2017-01-20T12:27:34.095Z,46.54
2017-01-20T12:29:46.763Z,47.41
2017-01-20T12:31:59.115Z,47.73
2017-01-20T12:34:11.484Z,47.31
2017-01-20T12:36:23.645Z,47.76
2017-01-20T12:38:31.042Z,48.44
2017-01-20T12:40:38.324Z,48.23
2017-01-20T12:42:41.277Z,48.28
2017-01-20T12:44:55.405Z,48.43
2017-01-20T12:47:09.704Z,48.16
2017-01-20T12:49:22.392Z,48.7
2017-01-20T12:51:35.782Z,48.88
2017-01-20T12:53:48.799Z,49.29
2017-01-20T12:56:01.745Z,49.71
2017-01-20T12:58:14.243Z,49.89
2017-01-20T13:00:22.116Z,49.99
2017-01-20T13:02:36.787Z,49.98
2017-01-20T13:04:50.025Z,50.18
2017-01-20T13:07:02.310Z,50.29
2017-01-20T13:09:14.894Z,50.48
2017-01-20T13:11:28.578Z,50.57
2017-01-20T13:13:36.029Z,50.88
2017-01-20T13:15:48.416Z,51.18
2017-01-20T13:18:00.946Z,51.28
2017-01-20T13:20:13.569Z,51.66
2017-01-20T13:22:26.264Z,51.89
2017-01-20T13:24:38.781Z,52.03
2017-01-20T13:26:51.038Z,52.29
2017-01-20T13:28:58.470Z,52.6
2017-01-20T13:31:10.800Z,52.7
2017-01-20T13:33:18.374Z,52.91
2017-01-20T13:35:30.794Z,53.07
2017-01-20T13:37:38.365Z,53.02
2017-01-20T13:39:51.076Z,52.94
2017-01-20T13:44:08.868Z,53.07
2017-01-20T13:46:21.205Z,53.26
2017-01-20T13:48:33.897Z,53.24
2017-01-20T13:50:46.413Z,53.32
2017-01-20T13:52:58.858Z,53.32
2017-01-20T13:55:12.796Z,53.4
2017-01-20T13:57:20.130Z,53.46
2017-01-20T13:59:27.575Z,53.47
2017-01-20T14:01:40.009Z,53.57
2017-01-20T14:03:52.412Z,53.72
2017-01-20T14:05:59.913Z,53.89
2017-01-20T14:08:12.227Z,53.98
2017-01-20T14:10:14.605Z,54.1
2017-01-20T14:12:27.239Z,54.23
2017-01-20T14:14:39.743Z,54.29
2017-01-20T14:16:52.388Z,54.35
2017-01-20T14:19:09.275Z,54.51
2017-01-20T14:21:22.387Z,54.71
2017-01-20T14:23:34.692Z,54.97
2017-01-20T14:25:42.131Z,55.25
2017-01-20T14:27:54.729Z,55.49
2017-01-20T14:30:06.988Z,55.73
2017-01-20T14:32:19.272Z,56
2017-01-20T14:34:31.746Z,56.22
2017-01-20T14:36:44.107Z,56.44
2017-01-20T14:38:51.467Z,56.65
2017-01-20T14:41:04.077Z,57
2017-01-20T14:43:16.756Z,57.37
2017-01-20T14:45:29.006Z,57.68
2017-01-20T14:47:41.275Z,57.96
2017-01-20T14:49:54.345Z,58.22
2017-01-20T14:52:01.863Z,58.47
2017-01-20T14:54:14.297Z,58.79
2017-01-20T14:56:26.902Z,59.08
2017-01-20T14:58:41.274Z,59.36
2017-01-20T15:00:55.313Z,59.67
2017-01-20T15:03:07.999Z,59.97
2017-01-20T15:05:22.198Z,60.25
2017-01-20T15:07:36.670Z,60.55
2017-01-20T15:09:49.537Z,60.72
2017-01-20T15:12:01.958Z,60.92
2017-01-20T15:14:09.387Z,61.21
2017-01-20T15:16:21.994Z,61.63
2017-01-20T15:18:29.467Z,62.04
2017-01-20T15:20:41.872Z,62.48
2017-01-20T15:22:54.362Z,62.79
2017-01-20T15:25:06.756Z,62.99
2017-01-20T15:27:19.240Z,63.13
2017-01-20T15:29:29.588Z,63.29
2017-01-20T15:31:42.440Z,63.47
2017-01-20T15:33:54.886Z,63.59
2017-01-20T15:36:07.203Z,63.79
2017-01-20T15:38:09.592Z,63.97
2017-01-20T15:40:22.225Z,64.18
2017-01-20T15:42:34.481Z,64.4
2017-01-20T15:44:46.813Z,64.57
2017-01-20T15:46:59.282Z,64.77
2017-01-20T15:49:11.854Z,64.89
2017-01-20T15:51:24.320Z,65.01
2017-01-20T15:53:36.672Z,65.15
2017-01-20T15:55:49.082Z,65.26
2017-01-20T15:58:02.173Z,65.35
2017-01-20T16:00:14.615Z,65.44
2017-01-20T16:02:26.971Z,65.55
2017-01-20T16:04:39.328Z,65.62
2017-01-20T16:06:53.501Z,65.69
2017-01-20T16:09:05.903Z,65.82
2017-01-20T16:11:18.234Z,65.91
2017-01-20T16:13:30.432Z,66.04
2017-01-20T16:15:42.835Z,66.08
2017-01-20T16:17:55.123Z,66.05
2017-01-20T16:20:07.373Z,66.13
2017-01-20T16:22:19.862Z,66.23
2017-01-20T16:24:27.482Z,66.3
2017-01-20T16:28:50.462Z,66.21
2017-01-20T16:31:02.711Z,66.07
2017-01-20T16:33:15.127Z,65.97
2017-01-20T16:35:27.403Z,66.01
2017-01-20T16:37:39.749Z,65.97
2017-01-20T16:39:52.069Z,66.01
2017-01-20T16:41:59.737Z,66.12
2017-01-20T16:44:12.746Z,66.19
2017-01-20T16:46:23.329Z,66.21
2017-01-20T16:48:35.767Z,66.22
2017-01-20T16:50:43.154Z,66.26
2017-01-20T16:52:50.582Z,66.21
2017-01-20T16:55:41.461Z,66.28
2017-01-20T16:58:01.906Z,66.25
2017-01-20T17:00:15.037Z,66.17
2017-01-20T17:02:27.958Z,66.05
2017-01-20T17:04:40.192Z,66.05
2017-01-20T17:07:19.286Z,66.05
2017-01-20T17:09:34.770Z,66.01
2017-01-20T17:11:47.067Z,66.06
2017-01-20T17:13:59.500Z,66.1
2017-01-20T17:16:12.095Z,66.09
2017-01-20T17:18:25.152Z,66.11
2017-01-20T17:20:37.577Z,66.16
2017-01-20T17:22:49.893Z,66.18
2017-01-20T17:25:02.096Z,66.19
2017-01-20T17:27:04.409Z,66.2
2017-01-20T17:29:11.846Z,66.19
2017-01-20T17:31:27.980Z,66.19
2017-01-20T17:33:40.365Z,66.18
2017-01-20T17:35:51.168Z,66.17
2017-01-20T17:38:04.002Z,66.14
2017-01-20T17:40:16.678Z,66.1
2017-01-20T17:42:29.275Z,66.11
2017-01-20T17:44:41.793Z,66.11
2017-01-20T17:46:54.491Z,66.05
2017-01-20T17:49:07.879Z,66
2017-01-20T17:51:20.680Z,65.98
2017-01-20T17:53:33.088Z,65.97
2017-01-20T17:55:40.433Z,65.96
2017-01-20T17:57:52.927Z,65.91
2017-01-20T18:00:05.417Z,65.91
2017-01-20T18:02:17.799Z,65.86
2017-01-20T18:04:30.289Z,65.75
2017-01-20T18:06:42.777Z,65.66
2017-01-20T18:08:55.008Z,65.58
2017-01-20T18:11:07.569Z,65.5
2017-01-20T18:13:20.018Z,65.44
2017-01-20T18:15:32.904Z,65.45
2017-01-20T18:17:40.342Z,65.47
2017-01-20T18:19:47.782Z,65.46
2017-01-20T18:22:00.248Z,65.48
2017-01-20T18:24:12.659Z,65.46
2017-01-20T18:26:25.358Z,65.41
2017-01-20T18:28:37.987Z,65.31
2017-01-20T18:30:50.530Z,65.23
2017-01-20T18:33:03.007Z,65.15
2017-01-20T18:35:15.665Z,65.06
2017-01-20T18:37:23.387Z,65.01
2017-01-20T18:39:30.827Z,64.92
2017-01-20T18:41:43.486Z,64.83
2017-01-20T18:43:55.871Z,64.73
2017-01-20T18:46:08.348Z,64.7
2017-01-20T18:48:20.732Z,64.67
2017-01-20T18:50:28.653Z,64.64
2017-01-20T18:52:41.303Z,64.61
2017-01-20T18:54:49.102Z,64.62
2017-01-20T18:57:02.122Z,64.62
2017-01-20T18:59:26.304Z,64.58
2017-01-20T19:01:39.387Z,64.56
2017-01-20T19:03:51.783Z,64.52
2017-01-20T19:06:04.412Z,64.45
2017-01-20T19:08:16.823Z,64.44
2017-01-20T19:10:24.356Z,64.44
2017-01-20T19:12:36.771Z,64.43
2017-01-20T19:14:49.158Z,64.43
2017-01-20T19:17:02.556Z,64.41
2017-01-20T19:19:14.994Z,64.4
2017-01-20T19:21:27.248Z,64.32
2017-01-20T19:23:39.763Z,64.28
2017-01-20T19:25:47.354Z,64.22
2017-01-20T19:27:59.877Z,64.13
2017-01-20T19:30:12.214Z,64.05
2017-01-20T19:32:24.724Z,63.98
2017-01-20T19:34:37.517Z,63.93
2017-01-20T19:36:50.083Z,63.95
2017-01-20T19:39:03.080Z,63.96
2017-01-20T19:41:15.446Z,63.96
2017-01-20T19:43:28.066Z,63.92
2017-01-20T19:45:33.497Z,63.89
2017-01-20T19:47:46.146Z,63.89
2017-01-20T19:49:58.610Z,63.9
2017-01-20T19:52:28.469Z,63.87
2017-01-20T19:54:41.202Z,63.83
2017-01-20T19:56:53.671Z,63.74
2017-01-20T19:59:06.063Z,63.66
2017-01-20T20:01:18.718Z,63.53
2017-01-20T20:03:31.273Z,63.45
2017-01-20T20:05:43.889Z,63.33
2017-01-20T20:08:00.045Z,63.27
2017-01-20T20:10:12.919Z,63.23
2017-01-20T20:12:25.462Z,63.23
2017-01-20T20:14:37.866Z,63.24
2017-01-20T20:16:50.804Z,63.28
2017-01-20T20:19:07.879Z,63.32
2017-01-20T20:21:26.580Z,63.31
2017-01-20T20:23:41.677Z,63.24
2017-01-20T20:25:55.977Z,63.21
2017-01-20T20:28:08.729Z,63.12
2017-01-20T20:30:16.221Z,63
2017-01-20T20:32:28.574Z,62.94
2017-01-20T20:34:41.812Z,62.95
2017-01-20T20:36:53.048Z,62.96
2017-01-20T20:39:07.218Z,62.98
2017-01-20T20:41:25.387Z,62.97
2017-01-20T20:43:39.379Z,62.99
2017-01-20T20:46:05.508Z,63
2017-01-20T20:48:16.815Z,62.99
2017-01-20T20:50:24.503Z,62.95
2017-01-20T20:52:37.550Z,62.94
2017-01-20T20:54:49.951Z,62.93
2017-01-20T20:57:02.259Z,62.94
2017-01-20T20:59:14.539Z,62.91
2017-01-20T21:01:26.875Z,62.87
2017-01-20T21:03:39.341Z,62.85
2017-01-20T21:05:51.759Z,62.83
2017-01-20T21:08:02.531Z,62.79
2017-01-20T21:10:15.093Z,62.79
2017-01-20T21:12:27.849Z,62.77
2017-01-20T21:14:40.938Z,62.73
2017-01-20T21:16:54.014Z,62.67
2017-01-20T21:19:05.166Z,62.64
2017-01-20T21:21:19.026Z,62.62
2017-01-20T21:23:31.797Z,62.59
2017-01-20T21:25:44.497Z,62.57
2017-01-20T21:27:51.896Z,62.51
2017-01-20T21:30:04.346Z,62.46
2017-01-20T21:32:16.532Z,62.4
2017-01-20T21:34:29.019Z,62.38
2017-01-20T21:36:36.316Z,62.35
2017-01-20T21:38:48.607Z,62.33
2017-01-20T21:41:01.340Z,62.29
2017-01-20T21:43:13.973Z,62.24
2017-01-20T21:45:26.545Z,62.22
2017-01-20T21:47:34.073Z,62.2
2017-01-20T21:52:03.876Z,62.23
2017-01-20T21:54:11.805Z,62.23
2017-01-20T21:56:24.360Z,62.23
2017-01-20T21:58:36.772Z,62.24
2017-01-20T22:00:49.174Z,62.25
2017-01-20T22:03:01.462Z,62.21
2017-01-20T22:05:14.194Z,62.15
2017-01-20T22:07:26.763Z,62.07
2017-01-20T22:09:40.132Z,62.01
2017-01-20T22:11:55.034Z,61.98
2017-01-20T22:14:07.391Z,61.95
2017-01-20T22:16:20.267Z,61.91
2017-01-20T22:18:32.823Z,61.91
2017-01-20T22:20:45.379Z,61.91
2017-01-20T22:22:57.592Z,61.9
2017-01-20T22:25:09.928Z,61.89
2017-01-20T22:27:22.928Z,61.84
2017-01-20T22:29:35.243Z,61.81
2017-01-20T22:31:47.525Z,61.75
2017-01-20T22:33:59.798Z,61.73
2017-01-20T22:36:12.600Z,61.69
2017-01-20T22:38:25.455Z,61.64
2017-01-20T22:40:33.035Z,61.62
2017-01-20T22:42:40.415Z,61.62
2017-01-20T22:44:51.153Z,61.64
2017-01-20T22:47:05.263Z,61.67
2017-01-20T22:49:17.768Z,61.69
2017-01-20T22:51:30.070Z,61.69
2017-01-20T22:53:37.761Z,61.68
2017-01-20T22:55:50.262Z,61.67
2017-01-20T22:58:04.454Z,61.66
2017-01-20T23:00:18.400Z,61.69
2017-01-20T23:04:42.601Z,61.67
2017-01-20T23:06:55.020Z,61.63
2017-01-20T23:09:07.379Z,61.63
2017-01-20T23:11:15.064Z,61.64
2017-01-20T23:13:27.708Z,61.65
2017-01-20T23:15:40.407Z,61.6
2017-01-20T23:17:53.090Z,61.55
2017-01-20T23:20:05.751Z,61.46
2017-01-20T23:22:13.973Z,61.42
2017-01-20T23:24:26.303Z,61.37
2017-01-20T23:26:38.595Z,61.35
2017-01-20T23:28:40.957Z,61.35
2017-01-20T23:30:53.135Z,61.36
2017-01-20T23:33:00.517Z,61.32
2017-01-20T23:35:08.390Z,61.3
2017-01-20T23:37:20.988Z,61.29
2017-01-20T23:39:28.354Z,61.27
2017-01-20T23:41:40.789Z,61.26
2017-01-20T23:43:48.209Z,61.27
2017-01-20T23:46:00.405Z,61.26
2017-01-20T23:48:12.583Z,61.2
2017-01-20T23:50:25.017Z,61.2
2017-01-20T23:52:37.434Z,61.23
2017-01-20T23:54:49.709Z,61.27
2017-01-20T23:57:02.095Z,61.3
2017-01-20T23:59:14.493Z,61.32
